createdAt,value
2022-08-26T00:01:18.439Z,21.65
2022-08-26T00:03:56.335Z,21.57
2022-08-26T00:06:22.920Z,21.48
2022-08-26T00:08:49.340Z,21.50
2022-08-26T00:11:15.871Z,21.56
2022-08-26T00:13:53.576Z,21.52
2022-08-26T00:16:20.036Z,21.56
2022-08-26T00:18:46.497Z,21.66
2022-08-26T00:21:12.886Z,21.51
2022-08-26T00:23:39.494Z,21.40
2022-08-26T00:26:06.734Z,21.32
2022-08-26T00:28:35.216Z,21.28
2022-08-26T00:31:01.798Z,21.45
2022-08-26T00:33:28.208Z,21.24
2022-08-26T00:35:54.712Z,21.27
2022-08-26T00:38:22.178Z,21.19
2022-08-26T00:40:52.272Z,21.22
2022-08-26T00:43:19.342Z,21.38
2022-08-26T00:46:09.494Z,21.38
2022-08-26T00:48:37.334Z,21.33
2022-08-26T00:51:11.402Z,21.21
2022-08-26T00:53:43.613Z,21.16
2022-08-26T00:56:15.607Z,21.06
2022-08-26T00:58:43.071Z,21.08
2022-08-26T01:01:10.427Z,21.05
2022-08-26T01:03:37.345Z,21.00
2022-08-26T01:06:05.210Z,21.05
2022-08-26T01:08:39.206Z,21.00
2022-08-26T01:11:05.790Z,21.01
2022-08-26T01:13:36.614Z,20.88
2022-08-26T01:16:04.546Z,20.72
2022-08-26T01:18:31.494Z,20.83
2022-08-26T01:21:00.930Z,20.91
2022-08-26T01:23:40.382Z,20.96
2022-08-26T01:26:19.519Z,20.85
2022-08-26T01:28:50.531Z,20.77
2022-08-26T01:31:24.764Z,20.67
2022-08-26T01:33:53.181Z,20.69
2022-08-26T01:36:19.683Z,20.76
2022-08-26T01:38:47.166Z,20.80
2022-08-26T01:41:16.273Z,20.68
2022-08-26T01:43:49.256Z,20.45
2022-08-26T01:46:16.115Z,20.41
2022-08-26T01:48:44.036Z,20.21
2022-08-26T01:51:11.994Z,20.32
2022-08-26T01:53:39.849Z,20.22
2022-08-26T01:56:08.612Z,20.48
2022-08-26T01:58:40.337Z,20.64
2022-08-26T02:01:06.873Z,20.77
2022-08-26T02:03:39.275Z,20.75
2022-08-26T02:06:09.149Z,20.74
2022-08-26T02:08:42.060Z,21.13
2022-08-26T02:11:09.285Z,21.33
2022-08-26T02:13:40.448Z,20.93
2022-08-26T02:16:07.934Z,20.50
2022-08-26T02:18:37.857Z,20.40
2022-08-26T02:21:06.750Z,20.32
2022-08-26T02:23:33.367Z,20.55
2022-08-26T02:26:14.381Z,20.24
2022-08-26T02:28:57.291Z,20.16
2022-08-26T02:31:24.383Z,20.02
2022-08-26T02:33:50.807Z,20.10
2022-08-26T02:36:28.550Z,20.24
2022-08-26T02:38:55.237Z,20.04
2022-08-26T02:41:22.197Z,19.97
2022-08-26T02:43:49.697Z,19.89
2022-08-26T02:46:21.498Z,19.47
2022-08-26T02:48:56.299Z,19.54
2022-08-26T02:51:22.811Z,19.73
2022-08-26T02:53:49.835Z,19.73
2022-08-26T02:56:17.548Z,19.69
2022-08-26T02:58:44.019Z,19.79
2022-08-26T03:01:31.406Z,19.94
2022-08-26T03:03:59.643Z,19.89
2022-08-26T03:06:26.060Z,19.82
2022-08-26T03:08:52.881Z,19.94
2022-08-26T03:11:19.689Z,19.98
2022-08-26T03:13:46.443Z,19.94
2022-08-26T03:16:13.407Z,19.74
2022-08-26T03:18:40.144Z,19.56
2022-08-26T03:21:07.817Z,19.73
2022-08-26T03:23:35.075Z,19.67
2022-08-26T03:26:01.819Z,19.84
2022-08-26T03:28:28.263Z,19.72
2022-08-26T03:30:55.169Z,19.74
2022-08-26T03:33:22.261Z,19.86
2022-08-26T03:35:50.587Z,20.04
2022-08-26T03:38:17.223Z,20.14
2022-08-26T03:40:43.651Z,20.04
2022-08-26T03:43:10.714Z,19.94
2022-08-26T03:45:37.636Z,19.84
2022-08-26T03:48:05.024Z,19.82
2022-08-26T03:50:34.407Z,19.66
2022-08-26T03:53:02.857Z,19.62
2022-08-26T03:55:33.179Z,19.41
2022-08-26T03:58:00.142Z,19.39
2022-08-26T04:00:26.910Z,19.39
2022-08-26T04:02:53.677Z,19.41
2022-08-26T04:05:21.731Z,19.31
2022-08-26T04:07:49.380Z,19.35
2022-08-26T04:10:20.282Z,19.33
2022-08-26T04:12:46.971Z,19.35
2022-08-26T04:15:15.496Z,19.26
2022-08-26T04:17:42.443Z,19.38
2022-08-26T04:20:09.892Z,19.36
2022-08-26T04:22:36.331Z,19.14
2022-08-26T04:25:02.848Z,19.08
2022-08-26T04:27:33.662Z,19.20
2022-08-26T04:30:00.460Z,19.08
2022-08-26T04:32:27.229Z,19.06
2022-08-26T04:34:53.615Z,19.04
2022-08-26T04:37:20.087Z,19.04
2022-08-26T04:39:52.324Z,19.02
2022-08-26T04:42:23.278Z,19.01
2022-08-26T04:44:52.757Z,19.07
2022-08-26T04:47:19.237Z,19.08
2022-08-26T04:49:45.657Z,19.05
2022-08-26T04:52:12.137Z,19.14
2022-08-26T04:54:39.139Z,19.17
2022-08-26T04:57:08.549Z,19.07
2022-08-26T04:59:38.987Z,19.07
2022-08-26T05:02:06.716Z,18.96
2022-08-26T05:04:33.609Z,19.02
2022-08-26T05:07:02.890Z,19.06
2022-08-26T05:09:29.643Z,19.19
2022-08-26T05:11:56.967Z,19.16
2022-08-26T05:14:23.454Z,19.23
2022-08-26T05:16:50.543Z,19.03
2022-08-26T05:19:19.003Z,18.96
2022-08-26T05:21:46.424Z,18.98
2022-08-26T05:24:13.934Z,19.07
2022-08-26T05:26:40.428Z,19.00
2022-08-26T05:29:07.712Z,18.94
2022-08-26T05:31:34.906Z,19.06
2022-08-26T05:34:03.906Z,19.18
2022-08-26T05:36:33.352Z,19.37
2022-08-26T05:39:00.578Z,19.14
2022-08-26T05:41:36.435Z,19.01
2022-08-26T05:44:05.851Z,18.99
2022-08-26T05:46:32.511Z,19.16
2022-08-26T05:48:59.512Z,19.26
2022-08-26T05:51:26.875Z,19.33
2022-08-26T05:53:57.016Z,19.26
2022-08-26T05:56:28.248Z,19.42
2022-08-26T05:58:55.615Z,19.18
2022-08-26T06:01:25.996Z,19.39
2022-08-26T06:04:01.716Z,19.49
2022-08-26T06:06:32.227Z,19.67
2022-08-26T06:08:59.828Z,19.79
2022-08-26T06:11:28.894Z,19.79
2022-08-26T06:14:02.713Z,19.76
2022-08-26T06:16:34.521Z,19.99
2022-08-26T06:19:02.784Z,20.27
2022-08-26T06:21:31.935Z,20.40
2022-08-26T06:24:20.435Z,20.25
2022-08-26T06:26:50.468Z,20.18
2022-08-26T06:29:24.461Z,19.99
2022-08-26T06:31:52.293Z,20.10
2022-08-26T06:34:18.881Z,20.14
2022-08-26T06:36:45.413Z,20.11
2022-08-26T06:39:14.344Z,20.26
2022-08-26T06:41:43.613Z,20.43
2022-08-26T06:44:10.144Z,20.33
2022-08-26T06:46:36.862Z,20.04
2022-08-26T06:49:03.937Z,20.09
2022-08-26T06:51:34.598Z,20.01
2022-08-26T06:54:02.228Z,20.17
2022-08-26T06:56:33.829Z,20.26
2022-08-26T06:59:00.518Z,20.24
2022-08-26T07:01:32.833Z,20.08
2022-08-26T07:04:00.735Z,20.44
2022-08-26T07:06:28.101Z,20.65
2022-08-26T07:09:01.505Z,20.76
2022-08-26T07:11:30.130Z,20.89
2022-08-26T07:13:58.843Z,20.94
2022-08-26T07:16:26.937Z,21.07
2022-08-26T07:18:54.320Z,21.11
2022-08-26T07:21:22.149Z,21.11
2022-08-26T07:23:50.889Z,21.24
2022-08-26T07:26:23.850Z,21.18
2022-08-26T07:28:53.348Z,21.25
2022-08-26T07:31:22.129Z,21.13
2022-08-26T07:33:49.130Z,21.06
2022-08-26T07:36:21.121Z,20.99
2022-08-26T07:38:48.161Z,21.22
2022-08-26T07:41:16.892Z,21.37
2022-08-26T07:43:44.326Z,21.42
2022-08-26T07:46:16.453Z,21.32
2022-08-26T07:48:45.964Z,21.43
2022-08-26T07:51:16.972Z,21.55
2022-08-26T07:53:43.878Z,21.52
2022-08-26T07:56:16.023Z,21.63
2022-08-26T07:58:42.475Z,21.61
2022-08-26T08:01:09.369Z,21.79
2022-08-26T08:03:35.896Z,21.64
2022-08-26T08:06:02.336Z,21.69
2022-08-26T08:08:29.300Z,21.44
2022-08-26T08:10:56.394Z,21.58
2022-08-26T08:13:22.880Z,21.51
2022-08-26T08:15:50.274Z,21.34
2022-08-26T08:18:17.404Z,21.67
2022-08-26T08:20:47.707Z,21.55
2022-08-26T08:23:31.448Z,21.51
2022-08-26T08:26:04.878Z,21.38
2022-08-26T08:28:31.583Z,21.27
2022-08-26T08:30:58.593Z,21.53
2022-08-26T08:33:26.967Z,21.44
2022-08-26T08:35:56.917Z,21.64
2022-08-26T08:38:23.728Z,21.87
2022-08-26T08:40:50.976Z,21.61
2022-08-26T08:43:37.570Z,21.71
2022-08-26T08:46:09.117Z,21.86
2022-08-26T08:48:39.193Z,21.97
2022-08-26T08:51:33.547Z,22.01
2022-08-26T08:54:02.113Z,22.04
2022-08-26T08:56:39.393Z,22.25
2022-08-26T08:59:24.250Z,22.13
2022-08-26T09:02:20.489Z,22.21
2022-08-26T09:04:53.561Z,21.80
2022-08-26T09:07:23.883Z,21.89
2022-08-26T09:10:01.583Z,22.10
2022-08-26T09:12:31.051Z,22.31
2022-08-26T09:15:03.410Z,22.44
2022-08-26T09:18:00.189Z,22.28
2022-08-26T09:20:49.907Z,22.16
2022-08-26T09:23:17.263Z,22.28
2022-08-26T09:28:28.460Z,22.48
2022-08-26T09:30:59.704Z,22.17
2022-08-26T09:33:31.637Z,22.28
2022-08-26T09:36:24.685Z,22.50
2022-08-26T09:38:52.678Z,22.39
2022-08-26T09:41:23.512Z,22.44
2022-08-26T09:44:14.532Z,22.35
2022-08-26T09:46:52.602Z,22.44
2022-08-26T09:49:26.045Z,22.42
2022-08-26T09:52:17.704Z,22.53
2022-08-26T09:54:46.050Z,22.28
2022-08-26T09:57:17.597Z,22.18
2022-08-26T09:59:44.548Z,22.39
2022-08-26T10:02:18.900Z,22.40
2022-08-26T10:04:54.213Z,22.53
2022-08-26T10:07:43.422Z,22.52
2022-08-26T10:10:31.990Z,22.57
2022-08-26T10:13:11.078Z,22.54
2022-08-26T10:16:07.205Z,22.56
2022-08-26T10:18:40.668Z,22.54
2022-08-26T10:21:23.897Z,22.43
2022-08-26T10:23:53.998Z,22.41
2022-08-26T10:26:40.310Z,22.53
2022-08-26T10:29:07.501Z,22.42
2022-08-26T10:31:41.309Z,22.52
2022-08-26T10:34:09.755Z,22.71
2022-08-26T10:37:14.304Z,22.77
2022-08-26T10:39:56.952Z,22.86
2022-08-26T10:42:43.140Z,22.62
2022-08-26T10:45:15.629Z,22.62
2022-08-26T10:47:48.834Z,22.64
2022-08-26T10:50:18.153Z,22.63
2022-08-26T10:53:04.355Z,22.82
2022-08-26T10:55:44.181Z,22.90
2022-08-26T10:58:26.481Z,23.09
2022-08-26T11:01:22.981Z,22.91
2022-08-26T11:04:38.216Z,23.18
2022-08-26T11:07:33.601Z,22.93
2022-08-26T11:10:05.876Z,22.87
2022-08-26T11:12:39.667Z,23.02
2022-08-26T11:15:13.622Z,23.08
2022-08-26T11:17:55.259Z,23.23
2022-08-26T11:20:41.802Z,23.37
2022-08-26T11:23:20.748Z,23.41
2022-08-26T11:25:57.210Z,23.44
2022-08-26T11:28:35.358Z,23.25
2022-08-26T11:31:03.221Z,23.43
2022-08-26T11:33:51.966Z,23.51
2022-08-26T11:36:43.707Z,23.48
2022-08-26T11:39:18.149Z,23.49
2022-08-26T11:41:46.467Z,23.48
2022-08-26T11:44:17.724Z,23.41
2022-08-26T11:46:55.493Z,23.48
2022-08-26T11:49:21.999Z,23.42
2022-08-26T11:51:48.638Z,23.27
2022-08-26T11:54:30.560Z,23.42
2022-08-26T11:57:07.318Z,23.40
2022-08-26T11:59:38.829Z,23.45
2022-08-26T12:02:15.024Z,23.62
2022-08-26T12:04:45.112Z,23.59
2022-08-26T12:07:12.744Z,23.61
2022-08-26T12:09:52.416Z,23.56
2022-08-26T12:12:25.688Z,23.59
2022-08-26T12:15:14.445Z,23.32
2022-08-26T12:17:41.904Z,23.61
2022-08-26T12:20:46.686Z,23.62
2022-08-26T12:23:25.036Z,23.69
2022-08-26T12:26:02.314Z,23.69
2022-08-26T12:28:31.834Z,23.66
2022-08-26T12:31:00.219Z,23.39
2022-08-26T12:33:31.195Z,23.32
2022-08-26T12:35:59.292Z,23.17
2022-08-26T12:38:27.495Z,23.26
2022-08-26T12:40:54.537Z,23.40
2022-08-26T12:43:44.959Z,23.34
2022-08-26T12:46:18.494Z,23.37
2022-08-26T12:48:48.975Z,23.56
2022-08-26T12:51:32.126Z,23.70
2022-08-26T12:53:59.227Z,23.96
2022-08-26T12:56:28.033Z,23.72
2022-08-26T12:59:24.275Z,23.77
2022-08-26T13:01:52.253Z,23.87
2022-08-26T13:04:41.054Z,23.86
2022-08-26T13:07:14.940Z,23.85
2022-08-26T13:09:41.393Z,23.99
2022-08-26T13:12:11.551Z,23.79
2022-08-26T13:14:38.100Z,23.99
2022-08-26T13:17:04.543Z,23.92
2022-08-26T13:19:31.343Z,23.81
2022-08-26T13:21:59.789Z,23.92
2022-08-26T13:24:27.669Z,23.79
2022-08-26T13:26:54.112Z,23.87
2022-08-26T13:29:20.695Z,23.86
2022-08-26T13:31:47.384Z,23.67
2022-08-26T13:34:18.169Z,23.88
2022-08-26T13:36:45.676Z,24.15
2022-08-26T13:39:12.831Z,24.19
2022-08-26T13:41:39.299Z,24.25
2022-08-26T13:44:06.364Z,24.04
2022-08-26T13:46:32.923Z,24.00
2022-08-26T13:48:59.521Z,23.80
2022-08-26T13:51:26.632Z,23.75
2022-08-26T13:53:53.501Z,23.92
2022-08-26T13:56:21.319Z,23.89
2022-08-26T13:58:47.826Z,23.96
2022-08-26T14:01:16.783Z,23.91
2022-08-26T14:03:43.653Z,23.97
2022-08-26T14:06:10.234Z,23.77
2022-08-26T14:08:38.322Z,23.68
2022-08-26T14:11:04.777Z,23.74
2022-08-26T14:13:31.197Z,23.81
2022-08-26T14:16:01.506Z,23.94
2022-08-26T14:18:31.974Z,24.06
2022-08-26T14:20:58.805Z,24.13
2022-08-26T14:23:25.934Z,24.13
2022-08-26T14:25:52.598Z,24.30
2022-08-26T14:28:19.255Z,24.34
2022-08-26T14:30:51.549Z,24.14
2022-08-26T14:33:20.293Z,24.14
2022-08-26T14:35:48.833Z,24.07
2022-08-26T14:38:16.550Z,24.04
2022-08-26T14:40:44.898Z,23.87
2022-08-26T14:43:13.782Z,23.92
2022-08-26T14:48:14.029Z,23.55
2022-08-26T14:50:40.553Z,23.43
2022-08-26T14:53:25.690Z,23.34
2022-08-26T14:55:52.671Z,23.37
2022-08-26T14:58:19.086Z,23.26
2022-08-26T15:00:45.507Z,23.17
2022-08-26T15:03:12.054Z,23.18
2022-08-26T15:05:39.786Z,23.21
2022-08-26T15:08:10.294Z,23.20
2022-08-26T15:10:37.311Z,23.30
2022-08-26T15:13:03.861Z,23.23
2022-08-26T15:15:30.324Z,23.01
2022-08-26T15:17:57.022Z,23.03
2022-08-26T15:20:23.506Z,23.05
2022-08-26T15:22:49.941Z,22.88
2022-08-26T15:25:17.840Z,22.74
2022-08-26T15:27:44.256Z,22.78
2022-08-26T15:30:12.170Z,22.74
2022-08-26T15:32:38.630Z,22.73
2022-08-26T15:35:09.020Z,22.79
2022-08-26T15:37:36.038Z,22.69
2022-08-26T15:40:02.716Z,22.72
2022-08-26T15:42:29.193Z,22.75
2022-08-26T15:44:55.643Z,22.73
2022-08-26T15:47:23.636Z,22.68
2022-08-26T15:49:50.100Z,22.76
2022-08-26T15:52:17.001Z,22.62
2022-08-26T15:54:43.399Z,22.58
2022-08-26T15:57:12.369Z,22.69
2022-08-26T15:59:40.145Z,22.60
2022-08-26T16:02:07.295Z,22.62
2022-08-26T16:04:33.820Z,22.47
2022-08-26T16:07:00.509Z,22.50
2022-08-26T16:09:27.728Z,22.45
2022-08-26T16:11:55.748Z,22.47
2022-08-26T16:14:22.811Z,22.39
2022-08-26T16:16:50.448Z,22.50
2022-08-26T16:19:17.164Z,22.51
2022-08-26T16:21:43.802Z,22.34
2022-08-26T16:24:10.680Z,22.27
2022-08-26T16:26:38.536Z,22.12
2022-08-26T16:29:08.528Z,22.19
2022-08-26T16:31:35.073Z,22.13
2022-08-26T16:34:01.640Z,22.19
2022-08-26T16:36:28.087Z,22.07
2022-08-26T16:38:56.135Z,22.14
2022-08-26T16:41:24.230Z,22.08
2022-08-26T16:43:50.645Z,22.06
2022-08-26T16:46:17.184Z,21.91
2022-08-26T16:48:44.564Z,21.91
2022-08-26T16:51:17.011Z,21.87
2022-08-26T16:53:44.442Z,21.94
2022-08-26T16:56:15.608Z,21.78
2022-08-26T16:58:42.371Z,21.70
2022-08-26T17:01:08.841Z,21.72
2022-08-26T17:03:35.529Z,21.71
2022-08-26T17:06:02.871Z,21.62
2022-08-26T17:08:30.292Z,21.60
2022-08-26T17:11:00.313Z,21.55
2022-08-26T17:13:35.654Z,21.65
2022-08-26T17:16:04.687Z,21.55
2022-08-26T17:18:32.736Z,21.63
2022-08-26T17:21:05.494Z,21.56
2022-08-26T17:23:31.968Z,21.50
2022-08-26T17:25:58.430Z,21.54
2022-08-26T17:28:24.858Z,21.53
2022-08-26T17:30:51.349Z,21.40
2022-08-26T17:33:19.537Z,21.44
2022-08-26T17:35:51.162Z,21.47
2022-08-26T17:38:17.583Z,21.47
2022-08-26T17:40:43.994Z,21.36
2022-08-26T17:43:12.442Z,21.42
2022-08-26T17:45:40.226Z,21.39
2022-08-26T17:48:07.516Z,21.40
2022-08-26T17:50:34.040Z,21.35
2022-08-26T17:53:00.478Z,21.22
2022-08-26T17:55:26.963Z,21.35
2022-08-26T17:57:53.998Z,21.33
2022-08-26T18:00:22.417Z,21.37
2022-08-26T18:02:48.883Z,21.46
2022-08-26T18:05:17.369Z,21.45
2022-08-26T18:07:44.734Z,21.30
2022-08-26T18:10:13.479Z,21.35
2022-08-26T18:12:41.340Z,21.35
2022-08-26T18:15:09.296Z,21.42
2022-08-26T18:17:36.300Z,21.32
2022-08-26T18:20:02.886Z,21.27
2022-08-26T18:22:29.801Z,21.21
2022-08-26T18:24:59.284Z,21.28
2022-08-26T18:27:26.172Z,21.21
2022-08-26T18:29:52.611Z,21.29
2022-08-26T18:32:19.045Z,21.25
2022-08-26T18:34:45.453Z,21.21
2022-08-26T18:39:40.557Z,21.05
2022-08-26T18:42:07.398Z,21.12
2022-08-26T18:44:33.821Z,21.12
2022-08-26T18:47:00.239Z,21.08
2022-08-26T18:49:26.658Z,21.02
2022-08-26T18:51:53.272Z,21.07
2022-08-26T18:56:51.742Z,21.07
2022-08-26T18:59:18.299Z,21.04
2022-08-26T19:01:45.368Z,21.02
2022-08-26T19:04:15.598Z,21.00
2022-08-26T19:06:46.588Z,20.99
2022-08-26T19:09:14.685Z,20.87
2022-08-26T19:11:45.006Z,21.06
2022-08-26T19:14:14.328Z,20.98
2022-08-26T19:16:43.390Z,20.92
2022-08-26T19:19:10.417Z,21.01
2022-08-26T19:21:37.874Z,20.98
2022-08-26T19:24:07.138Z,20.91
2022-08-26T19:26:33.653Z,20.91
2022-08-26T19:29:00.233Z,20.87
2022-08-26T19:31:27.288Z,20.85
2022-08-26T19:33:53.740Z,20.76
2022-08-26T19:36:25.289Z,20.83
2022-08-26T19:38:52.264Z,20.84
2022-08-26T19:41:24.550Z,20.77
2022-08-26T19:43:54.931Z,20.73
2022-08-26T19:46:26.454Z,20.74
2022-08-26T19:48:55.694Z,20.65
2022-08-26T19:51:26.105Z,20.54
2022-08-26T19:53:54.637Z,20.51
2022-08-26T19:56:21.596Z,20.63
2022-08-26T19:58:49.076Z,20.58
2022-08-26T20:01:16.688Z,20.69
2022-08-26T20:03:43.704Z,20.59
2022-08-26T20:06:12.119Z,20.53
2022-08-26T20:08:39.845Z,20.58
2022-08-26T20:11:11.378Z,20.39
2022-08-26T20:13:38.611Z,20.41
2022-08-26T20:16:05.261Z,20.41
2022-08-26T20:18:49.992Z,20.49
2022-08-26T20:21:29.460Z,20.45
2022-08-26T20:24:01.670Z,20.44
2022-08-26T20:26:29.011Z,20.38
2022-08-26T20:28:55.898Z,20.33
2022-08-26T20:31:22.664Z,20.19
2022-08-26T20:33:50.463Z,20.17
2022-08-26T20:36:18.892Z,20.06
2022-08-26T20:38:45.890Z,20.01
2022-08-26T20:41:12.861Z,19.92
2022-08-26T20:43:39.355Z,19.77
2022-08-26T20:46:10.399Z,19.86
2022-08-26T20:48:45.857Z,19.76
2022-08-26T20:51:12.608Z,19.74
2022-08-26T20:53:39.370Z,19.61
2022-08-26T20:56:08.424Z,19.59
2022-08-26T20:58:35.217Z,19.58
2022-08-26T21:01:06.902Z,19.60
2022-08-26T21:03:34.423Z,19.49
2022-08-26T21:06:00.831Z,19.45
2022-08-26T21:08:27.206Z,19.43
2022-08-26T21:10:53.680Z,19.42
2022-08-26T21:13:20.130Z,19.25
2022-08-26T21:15:46.543Z,19.25
2022-08-26T21:18:12.933Z,19.33
2022-08-26T21:20:39.333Z,19.27
2022-08-26T21:23:05.786Z,19.33
2022-08-26T21:25:32.200Z,19.26
2022-08-26T21:27:58.573Z,19.01
2022-08-26T21:30:24.971Z,19.11
2022-08-26T21:32:51.420Z,19.22
2022-08-26T21:35:17.828Z,19.19
2022-08-26T21:37:44.304Z,19.21
2022-08-26T21:40:11.121Z,19.10
2022-08-26T21:42:37.685Z,19.12
2022-08-26T21:45:05.360Z,19.21
2022-08-26T21:47:32.487Z,19.10
2022-08-26T21:49:59.217Z,19.14
2022-08-26T21:52:26.313Z,19.13
2022-08-26T21:54:56.901Z,19.15
2022-08-26T21:57:23.284Z,19.11
2022-08-26T21:59:50.001Z,19.17
2022-08-26T22:02:16.557Z,19.19
2022-08-26T22:04:48.148Z,19.08
2022-08-26T22:07:16.977Z,19.00
2022-08-26T22:09:43.381Z,19.08
2022-08-26T22:12:11.633Z,19.02
2022-08-26T22:14:39.515Z,18.94
2022-08-26T22:17:06.253Z,18.82
2022-08-26T22:19:32.704Z,18.89
2022-08-26T22:22:02.230Z,18.81
2022-08-26T22:24:28.675Z,18.75
2022-08-26T22:26:55.953Z,18.82
2022-08-26T22:29:22.598Z,18.70
2022-08-26T22:31:49.107Z,18.66
2022-08-26T22:34:17.203Z,18.55
2022-08-26T22:36:45.464Z,18.77
2022-08-26T22:39:17.364Z,18.76
2022-08-26T22:41:45.181Z,18.66
2022-08-26T22:44:12.279Z,18.72
2022-08-26T22:46:39.586Z,18.47
2022-08-26T22:49:08.341Z,18.52
2022-08-26T22:51:34.808Z,18.41
2022-08-26T22:54:01.378Z,18.38
2022-08-26T22:56:27.852Z,18.50
2022-08-26T22:58:54.254Z,18.41
2022-08-26T23:01:20.806Z,18.36
2022-08-26T23:03:47.383Z,18.43
2022-08-26T23:06:14.127Z,18.50
2022-08-26T23:08:41.814Z,18.44
2022-08-26T23:11:09.736Z,18.52
2022-08-26T23:13:36.463Z,18.60
2022-08-26T23:16:05.586Z,18.67
2022-08-26T23:18:32.124Z,18.57
2022-08-26T23:20:58.569Z,18.39
2022-08-26T23:23:27.446Z,18.36
2022-08-26T23:25:54.766Z,18.42
2022-08-26T23:28:22.365Z,18.36
2022-08-26T23:30:49.197Z,18.36
2022-08-26T23:33:15.913Z,18.38
2022-08-26T23:35:42.393Z,18.25
2022-08-26T23:38:09.780Z,18.50
2022-08-26T23:40:38.773Z,18.50
2022-08-26T23:43:08.005Z,18.26
2022-08-26T23:45:35.327Z,18.33
2022-08-26T23:48:01.960Z,18.34
2022-08-26T23:50:48.311Z,18.20
2022-08-26T23:53:19.471Z,18.12
2022-08-26T23:55:50.846Z,18.12
2022-08-26T23:58:18.907Z,18.01
